createdAt,value
2018-12-16T00:01:49.912Z,7.27
2018-12-16T00:04:17.509Z,7.27
2018-12-16T00:06:45.244Z,7.20
2018-12-16T00:09:12.821Z,8.20
2018-12-16T00:11:40.363Z,7.63
2018-12-16T00:14:07.864Z,6.73
2018-12-16T00:16:36.198Z,8.47
2018-12-16T00:19:03.701Z,8.30
2018-12-16T00:21:32.029Z,6.80
2018-12-16T00:23:59.573Z,8.33
2018-12-16T00:26:31.081Z,8.33
2018-12-16T00:28:58.593Z,7.87
2018-12-16T00:31:26.136Z,7.50
2018-12-16T00:33:53.688Z,8.37
2018-12-16T00:36:21.190Z,7.87
2018-12-16T00:38:49.063Z,7.40
2018-12-16T00:41:16.572Z,7.60
2018-12-16T00:43:44.076Z,7.97
2018-12-16T00:46:11.619Z,7.87
2018-12-16T00:48:39.160Z,7.50
2018-12-16T00:51:06.662Z,7.33
2018-12-16T00:53:34.213Z,8.60
2018-12-16T00:56:01.721Z,8.57
2018-12-16T00:58:29.230Z,8.23
2018-12-16T01:00:56.857Z,8.17
2018-12-16T01:03:24.367Z,7.40
2018-12-16T01:05:51.912Z,7.20
2018-12-16T01:08:19.421Z,8.00
2018-12-16T01:10:47.296Z,7.80
2018-12-16T01:13:14.802Z,9.00
2018-12-16T01:15:42.344Z,8.17
2018-12-16T01:18:09.850Z,8.40
2018-12-16T01:20:37.390Z,8.20
2018-12-16T01:23:04.896Z,7.93
2018-12-16T01:25:32.457Z,9.13
2018-12-16T01:27:59.965Z,8.47
2018-12-16T01:30:27.503Z,9.30
2018-12-16T01:32:55.041Z,9.20
2018-12-16T01:35:22.546Z,8.67
2018-12-16T01:37:50.173Z,8.20
2018-12-16T01:40:17.980Z,7.87
2018-12-16T01:42:45.536Z,9.13
2018-12-16T01:45:13.121Z,9.80
2018-12-16T01:47:40.633Z,7.97
2018-12-16T01:50:08.252Z,9.40
2018-12-16T01:52:36.069Z,9.40
2018-12-16T01:55:04.085Z,9.40
2018-12-16T01:57:31.597Z,8.60
2018-12-16T01:59:59.141Z,9.80
2018-12-16T02:02:26.688Z,9.33
2018-12-16T02:04:54.198Z,11.33
2018-12-16T02:07:21.713Z,10.20
2018-12-16T02:09:49.248Z,9.70
2018-12-16T02:12:16.758Z,8.47
2018-12-16T02:14:44.296Z,9.70
2018-12-16T02:17:11.806Z,9.47
2018-12-16T02:19:39.443Z,10.10
2018-12-16T02:22:06.952Z,8.90
2018-12-16T02:24:34.461Z,9.87
2018-12-16T02:27:02.004Z,9.60
2018-12-16T02:29:29.513Z,17.37
2018-12-16T02:31:57.057Z,18.57
2018-12-16T02:34:24.570Z,21.00
2018-12-16T02:36:52.158Z,11.20
2018-12-16T02:39:19.666Z,14.10
2018-12-16T02:41:47.212Z,11.87
2018-12-16T02:44:14.716Z,17.50
2018-12-16T02:46:42.253Z,19.33
2018-12-16T02:49:10.076Z,14.83
2018-12-16T02:51:37.592Z,9.90
2018-12-16T02:54:05.156Z,9.10
2018-12-16T02:56:33.054Z,9.63
2018-12-16T02:59:00.597Z,9.00
2018-12-16T03:01:28.106Z,10.47
2018-12-16T03:03:55.934Z,8.07
2018-12-16T03:06:23.442Z,8.23
2018-12-16T03:08:51.249Z,9.63
2018-12-16T03:11:18.748Z,9.73
2018-12-16T03:13:46.554Z,9.77
2018-12-16T03:16:14.057Z,8.80
2018-12-16T03:18:41.594Z,9.20
2018-12-16T03:21:09.106Z,9.60
2018-12-16T03:23:36.653Z,9.23
2018-12-16T03:26:04.163Z,9.43
2018-12-16T03:28:31.668Z,9.87
2018-12-16T03:30:59.210Z,9.50
2018-12-16T03:33:26.727Z,9.20
2018-12-16T03:35:54.580Z,8.80
2018-12-16T03:38:22.270Z,8.30
2018-12-16T03:40:49.813Z,9.10
2018-12-16T03:43:17.320Z,8.77
2018-12-16T03:45:44.933Z,10.13
2018-12-16T03:48:12.447Z,10.70
2018-12-16T03:50:39.993Z,9.50
2018-12-16T03:53:07.503Z,9.00
2018-12-16T03:55:35.064Z,8.00
2018-12-16T03:58:02.594Z,9.73
2018-12-16T04:00:30.243Z,9.40
2018-12-16T04:02:57.757Z,8.90
2018-12-16T04:05:25.309Z,10.30
2018-12-16T04:07:52.819Z,9.73
2018-12-16T04:10:20.330Z,10.10
2018-12-16T04:12:47.879Z,10.20
2018-12-16T04:15:15.433Z,10.60
2018-12-16T04:17:43.110Z,9.43
2018-12-16T04:20:10.617Z,9.50
2018-12-16T04:22:38.164Z,8.43
2018-12-16T04:25:05.800Z,9.00
2018-12-16T04:27:33.340Z,11.10
2018-12-16T04:30:00.847Z,9.50
2018-12-16T04:32:28.414Z,11.33
2018-12-16T04:34:55.922Z,10.30
2018-12-16T04:37:23.425Z,9.67
2018-12-16T04:39:50.969Z,9.50
2018-12-16T04:42:18.469Z,9.87
2018-12-16T04:44:46.001Z,9.90
2018-12-16T04:47:13.525Z,10.20
2018-12-16T04:49:41.065Z,9.57
2018-12-16T04:52:08.602Z,8.80
2018-12-16T04:54:36.154Z,9.67
2018-12-16T04:57:03.949Z,10.50
2018-12-16T04:59:31.494Z,8.10
2018-12-16T05:01:58.998Z,8.27
2018-12-16T05:04:26.549Z,10.23
2018-12-16T05:06:54.055Z,9.90
2018-12-16T05:09:21.568Z,10.60
2018-12-16T05:11:49.111Z,9.73
2018-12-16T05:14:16.655Z,10.03
2018-12-16T05:16:44.150Z,9.43
2018-12-16T05:19:11.697Z,9.27
2018-12-16T05:21:39.196Z,10.50
2018-12-16T05:24:06.713Z,9.17
2018-12-16T05:26:34.250Z,8.93
2018-12-16T05:29:01.748Z,9.40
2018-12-16T05:31:29.288Z,9.57
2018-12-16T05:33:56.801Z,9.80
2018-12-16T05:36:24.351Z,10.20
2018-12-16T05:38:51.866Z,10.00
2018-12-16T05:41:19.418Z,10.27
2018-12-16T05:43:46.926Z,9.87
2018-12-16T05:46:14.469Z,9.67
2018-12-16T05:48:41.980Z,9.83
2018-12-16T05:51:09.530Z,10.27
2018-12-16T05:53:37.038Z,11.10
2018-12-16T05:56:04.577Z,10.00
2018-12-16T05:58:32.085Z,10.00
2018-12-16T06:00:59.633Z,10.70
2018-12-16T06:03:27.151Z,10.90
2018-12-16T06:05:54.702Z,10.10
2018-12-16T06:08:22.213Z,12.33
2018-12-16T06:10:49.769Z,9.23
2018-12-16T06:13:17.276Z,11.83
2018-12-16T06:15:44.781Z,11.33
2018-12-16T06:18:12.665Z,10.87
2018-12-16T06:20:40.177Z,12.47
2018-12-16T06:23:07.725Z,11.13
2018-12-16T06:25:35.249Z,11.17
2018-12-16T06:28:02.797Z,12.40
2018-12-16T06:30:31.482Z,13.07
2018-12-16T06:32:59.038Z,11.50
2018-12-16T06:35:26.545Z,11.93
2018-12-16T06:37:54.090Z,12.00
2018-12-16T06:40:21.593Z,13.10
2018-12-16T06:42:49.165Z,11.97
2018-12-16T06:45:16.682Z,12.40
2018-12-16T06:47:44.228Z,12.70
2018-12-16T06:50:11.743Z,12.43
2018-12-16T06:52:39.302Z,14.93
2018-12-16T06:55:06.869Z,12.67
2018-12-16T06:57:34.397Z,13.30
2018-12-16T07:00:01.946Z,12.50
2018-12-16T07:02:29.570Z,12.47
2018-12-16T07:04:57.134Z,13.70
2018-12-16T07:07:24.665Z,14.20
2018-12-16T07:09:52.206Z,13.07
2018-12-16T07:12:19.730Z,15.13
2018-12-16T07:14:47.297Z,13.50
2018-12-16T07:17:14.823Z,14.13
2018-12-16T07:19:42.404Z,13.33
2018-12-16T07:22:10.000Z,13.07
2018-12-16T07:24:37.553Z,13.83
2018-12-16T07:27:05.065Z,12.50
2018-12-16T07:29:32.645Z,13.90
2018-12-16T07:32:00.213Z,14.70
2018-12-16T07:34:27.990Z,15.17
2018-12-16T07:36:55.657Z,13.43
2018-12-16T07:39:23.204Z,14.53
2018-12-16T07:41:50.838Z,15.53
2018-12-16T07:44:18.391Z,13.83
2018-12-16T07:46:45.934Z,13.33
2018-12-16T07:49:13.575Z,12.57
2018-12-16T07:51:41.143Z,14.20
2018-12-16T07:54:15.829Z,16.33
2018-12-16T07:56:38.521Z,15.50
2018-12-16T07:59:06.034Z,17.30
2018-12-16T08:01:33.617Z,14.87
2018-12-16T08:04:01.227Z,14.53
2018-12-16T08:06:28.773Z,14.30
2018-12-16T08:08:56.286Z,12.87
2018-12-16T08:11:23.795Z,17.10
2018-12-16T08:13:51.347Z,15.27
2018-12-16T08:16:18.857Z,15.30
2018-12-16T08:18:46.402Z,15.80
2018-12-16T08:21:13.954Z,16.00
2018-12-16T08:23:41.515Z,15.70
2018-12-16T08:26:09.339Z,15.10
2018-12-16T08:28:36.877Z,15.33
2018-12-16T08:31:04.445Z,15.43
2018-12-16T08:33:32.002Z,14.30
2018-12-16T08:35:59.556Z,16.27
2018-12-16T08:38:27.114Z,17.63
2018-12-16T08:40:54.632Z,16.03
2018-12-16T08:43:22.311Z,15.47
2018-12-16T08:45:49.882Z,16.87
2018-12-16T08:48:17.403Z,22.50
2018-12-16T08:50:44.949Z,36.27
2018-12-16T08:53:12.472Z,17.30
2018-12-16T08:55:40.024Z,17.83
2018-12-16T08:58:07.533Z,16.23
2018-12-16T09:00:35.090Z,15.93
2018-12-16T09:03:02.598Z,17.90
2018-12-16T09:05:30.152Z,19.97
2018-12-16T09:07:57.702Z,17.10
2018-12-16T09:10:25.218Z,18.10
2018-12-16T09:12:52.765Z,16.50
2018-12-16T09:15:20.292Z,17.53
2018-12-16T09:17:48.085Z,16.87
2018-12-16T09:20:15.592Z,17.33
2018-12-16T09:22:43.146Z,15.47
2018-12-16T09:25:10.899Z,15.10
2018-12-16T09:27:38.465Z,16.43
2018-12-16T09:30:08.814Z,17.80
2018-12-16T09:32:36.439Z,17.67
2018-12-16T09:35:04.880Z,18.00
2018-12-16T09:37:32.664Z,15.70
2018-12-16T09:40:00.178Z,16.60
2018-12-16T09:42:27.728Z,15.40
2018-12-16T09:44:55.337Z,19.53
2018-12-16T09:47:23.224Z,17.17
2018-12-16T09:49:50.778Z,16.90
2018-12-16T09:52:18.318Z,17.63
2018-12-16T09:54:45.825Z,16.60
2018-12-16T09:57:13.379Z,16.33
2018-12-16T09:59:40.893Z,15.47
2018-12-16T10:02:08.450Z,16.10
2018-12-16T10:04:35.986Z,17.00
2018-12-16T10:07:03.535Z,18.00
2018-12-16T10:09:31.089Z,16.90
2018-12-16T10:11:58.644Z,19.50
2018-12-16T10:14:26.162Z,35.03
2018-12-16T10:16:53.750Z,29.60
2018-12-16T10:19:21.262Z,18.53
2018-12-16T10:21:48.833Z,17.50
2018-12-16T10:24:16.609Z,21.03
2018-12-16T10:26:45.962Z,17.30
2018-12-16T10:29:13.785Z,18.90
2018-12-16T10:31:41.584Z,16.80
2018-12-16T10:34:09.108Z,17.17
2018-12-16T10:36:36.618Z,17.33
2018-12-16T10:39:06.727Z,16.20
2018-12-16T10:41:34.283Z,15.17
2018-12-16T10:44:02.002Z,16.83
2018-12-16T10:46:29.558Z,17.27
2018-12-16T10:48:57.088Z,18.00
2018-12-16T10:51:24.649Z,16.40
2018-12-16T10:53:52.218Z,16.57
2018-12-16T10:56:19.762Z,17.80
2018-12-16T10:58:47.348Z,15.63
2018-12-16T11:01:20.454Z,17.70
2018-12-16T11:03:47.963Z,17.97
2018-12-16T11:06:15.514Z,17.10
2018-12-16T11:08:43.676Z,17.60
2018-12-16T11:11:11.235Z,14.97
2018-12-16T11:13:38.820Z,17.70
2018-12-16T11:16:06.377Z,17.00
2018-12-16T11:18:33.949Z,17.50
2018-12-16T11:21:01.482Z,16.77
2018-12-16T11:23:29.029Z,17.50
2018-12-16T11:25:57.057Z,16.47
2018-12-16T11:28:24.603Z,17.40
2018-12-16T11:30:52.183Z,18.17
2018-12-16T11:33:19.703Z,18.53
2018-12-16T11:35:47.283Z,19.00
2018-12-16T11:38:15.656Z,18.17
2018-12-16T11:40:43.230Z,17.63
2018-12-16T11:43:10.960Z,17.43
2018-12-16T11:45:38.468Z,16.17
2018-12-16T11:48:06.293Z,18.07
2018-12-16T11:50:33.825Z,16.53
2018-12-16T11:53:01.374Z,17.00
2018-12-16T11:55:29.503Z,18.03
2018-12-16T11:57:57.048Z,16.17
2018-12-16T12:00:24.603Z,17.37
2018-12-16T12:02:52.161Z,17.63
2018-12-16T12:05:19.673Z,16.83
2018-12-16T12:07:47.206Z,19.03
2018-12-16T12:10:14.758Z,16.40
2018-12-16T12:12:42.263Z,16.47
2018-12-16T12:15:09.889Z,15.83
2018-12-16T12:17:37.468Z,16.93
2018-12-16T12:20:05.380Z,17.20
2018-12-16T12:22:32.945Z,21.37
2018-12-16T12:25:00.513Z,17.73
2018-12-16T12:27:28.148Z,23.53
2018-12-16T12:29:55.658Z,17.23
2018-12-16T12:32:23.196Z,21.13
2018-12-16T12:34:50.721Z,18.23
2018-12-16T12:37:18.273Z,17.40
2018-12-16T12:39:45.792Z,19.37
2018-12-16T12:42:13.348Z,16.40
2018-12-16T12:44:40.853Z,17.70
2018-12-16T12:47:08.433Z,17.30
2018-12-16T12:49:36.231Z,17.37
2018-12-16T12:52:03.807Z,17.77
2018-12-16T12:54:31.402Z,18.10
2018-12-16T12:56:58.953Z,17.10
2018-12-16T12:59:26.518Z,19.03
2018-12-16T13:01:54.017Z,16.40
2018-12-16T13:04:21.550Z,18.00
2018-12-16T13:06:49.053Z,18.80
2018-12-16T13:09:16.588Z,19.00
2018-12-16T13:11:44.126Z,21.33
2018-12-16T13:14:11.662Z,19.80
2018-12-16T13:16:39.231Z,18.40
2018-12-16T13:19:06.894Z,19.70
2018-12-16T13:21:34.400Z,21.00
2018-12-16T13:24:01.928Z,21.30
2018-12-16T13:26:29.607Z,20.80
2018-12-16T13:28:57.126Z,19.90
2018-12-16T13:31:24.890Z,19.27
2018-12-16T13:33:52.765Z,19.67
2018-12-16T13:36:20.273Z,18.83
2018-12-16T13:38:47.798Z,22.03
2018-12-16T13:41:15.301Z,19.57
2018-12-16T13:43:42.830Z,18.67
2018-12-16T13:46:10.329Z,19.07
2018-12-16T13:48:37.877Z,17.87
2018-12-16T13:51:05.388Z,18.50
2018-12-16T13:53:32.894Z,17.70
2018-12-16T13:56:00.424Z,17.57
2018-12-16T13:58:27.954Z,18.40
2018-12-16T14:00:55.562Z,19.40
2018-12-16T14:03:23.093Z,17.00
2018-12-16T14:05:50.846Z,22.50
2018-12-16T14:08:18.353Z,19.33
2018-12-16T14:10:45.878Z,16.47
2018-12-16T14:13:13.381Z,17.93
2018-12-16T14:15:40.913Z,18.03
2018-12-16T14:18:08.409Z,19.30
2018-12-16T14:20:35.930Z,17.17
2018-12-16T14:23:03.506Z,18.40
2018-12-16T14:25:31.032Z,18.00
2018-12-16T14:27:58.542Z,19.87
2018-12-16T14:30:26.119Z,17.63
2018-12-16T14:32:54.022Z,17.60
2018-12-16T14:35:22.216Z,17.27
2018-12-16T14:37:49.794Z,18.70
2018-12-16T14:40:17.330Z,17.77
2018-12-16T14:42:44.849Z,16.90
2018-12-16T14:45:12.450Z,16.90
2018-12-16T14:47:39.954Z,17.57
2018-12-16T14:50:08.045Z,21.77
2018-12-16T14:52:35.554Z,23.47
2018-12-16T14:55:04.022Z,21.13
2018-12-16T14:57:31.550Z,21.87
2018-12-16T14:59:59.053Z,18.70
2018-12-16T15:02:26.582Z,18.87
2018-12-16T15:04:54.364Z,18.53
2018-12-16T15:07:22.042Z,23.80
2018-12-16T15:09:49.545Z,23.47
2018-12-16T15:12:17.070Z,19.70
2018-12-16T15:14:45.150Z,17.10
2018-12-16T15:17:12.850Z,19.70
2018-12-16T15:19:40.361Z,21.10
2018-12-16T15:22:07.881Z,19.20
2018-12-16T15:24:35.382Z,18.43
2018-12-16T15:27:02.908Z,18.37
2018-12-16T15:29:30.409Z,18.67
2018-12-16T15:31:57.934Z,17.40
2018-12-16T15:34:25.565Z,17.63
2018-12-16T15:36:53.091Z,17.00
2018-12-16T15:39:20.607Z,16.17
2018-12-16T15:41:48.133Z,17.77
2018-12-16T15:44:15.642Z,20.30
2018-12-16T15:46:43.391Z,17.33
2018-12-16T15:49:10.897Z,21.23
2018-12-16T15:51:38.485Z,18.30
2018-12-16T15:54:06.103Z,18.60
2018-12-16T15:56:33.658Z,16.27
2018-12-16T15:59:01.166Z,17.10
2018-12-16T16:01:28.697Z,17.67
2018-12-16T16:03:56.197Z,22.53
2018-12-16T16:06:23.737Z,22.80
2018-12-16T16:08:51.237Z,20.57
2018-12-16T16:11:18.774Z,17.60
2018-12-16T16:13:46.264Z,16.83
2018-12-16T16:16:13.790Z,18.60
2018-12-16T16:18:41.285Z,18.27
2018-12-16T16:21:08.817Z,18.07
2018-12-16T16:23:36.321Z,17.17
2018-12-16T16:26:03.822Z,18.70
2018-12-16T16:28:31.349Z,17.80
2018-12-16T16:30:58.849Z,19.20
2018-12-16T16:33:26.377Z,18.73
2018-12-16T16:35:53.886Z,19.10
2018-12-16T16:38:21.423Z,17.47
2018-12-16T16:40:49.396Z,22.80
2018-12-16T16:43:16.926Z,18.37
2018-12-16T16:45:44.453Z,17.20
2018-12-16T16:48:11.997Z,18.63
2018-12-16T16:50:39.502Z,19.50
2018-12-16T16:53:07.029Z,23.00
2018-12-16T16:55:34.538Z,18.90
2018-12-16T16:58:02.073Z,16.73
2018-12-16T17:00:29.649Z,18.77
2018-12-16T17:02:57.173Z,17.13
2018-12-16T17:05:24.713Z,18.60
2018-12-16T17:07:52.246Z,21.10
2018-12-16T17:10:20.615Z,22.10
2018-12-16T17:12:48.145Z,18.87
2018-12-16T17:15:15.650Z,20.43
2018-12-16T17:17:43.182Z,19.90
2018-12-16T17:20:10.703Z,21.73
2018-12-16T17:22:38.286Z,19.43
2018-12-16T17:25:06.134Z,19.13
2018-12-16T17:27:33.701Z,19.80
2018-12-16T17:30:02.195Z,23.57
2018-12-16T17:32:29.945Z,17.90
2018-12-16T17:34:57.474Z,18.50
2018-12-16T17:37:24.981Z,17.97
2018-12-16T17:39:52.510Z,19.20
2018-12-16T17:42:20.013Z,18.10
2018-12-16T17:44:47.541Z,20.90
2018-12-16T17:47:15.049Z,20.50
2018-12-16T17:49:42.573Z,20.97
2018-12-16T17:52:10.082Z,17.97
2018-12-16T17:54:37.621Z,19.37
2018-12-16T17:57:05.182Z,18.87
2018-12-16T17:59:32.709Z,19.70
2018-12-16T18:02:00.585Z,18.70
2018-12-16T18:04:28.175Z,19.80
2018-12-16T18:06:55.680Z,18.00
2018-12-16T18:09:23.209Z,20.37
2018-12-16T18:11:50.733Z,17.60
2018-12-16T18:14:18.266Z,19.83
2018-12-16T18:16:45.773Z,19.93
2018-12-16T18:19:13.300Z,18.60
2018-12-16T18:21:40.807Z,20.40
2018-12-16T18:24:08.329Z,20.67
2018-12-16T18:26:35.832Z,20.70
2018-12-16T18:29:04.465Z,18.50
2018-12-16T18:31:32.090Z,19.13
2018-12-16T18:33:59.667Z,21.37
2018-12-16T18:36:27.174Z,20.87
2018-12-16T18:38:54.706Z,19.73
2018-12-16T18:41:22.221Z,19.87
2018-12-16T18:43:49.945Z,21.93
2018-12-16T18:46:17.450Z,23.57
2018-12-16T18:48:44.973Z,20.07
2018-12-16T18:51:12.554Z,20.47
2018-12-16T18:53:40.136Z,21.97
2018-12-16T18:56:07.681Z,21.77
2018-12-16T18:58:35.192Z,21.53
2018-12-16T19:01:02.826Z,19.73
2018-12-16T19:03:30.526Z,20.47
2018-12-16T19:05:58.066Z,19.47
2018-12-16T19:08:25.574Z,21.70
2018-12-16T19:10:53.121Z,24.30
2018-12-16T19:13:21.849Z,22.53
2018-12-16T19:15:49.698Z,20.93
2018-12-16T19:18:17.271Z,20.90
2018-12-16T19:20:44.814Z,21.20
2018-12-16T19:23:12.380Z,20.90
2018-12-16T19:25:39.883Z,20.07
2018-12-16T19:28:07.509Z,19.03
2018-12-16T19:30:35.022Z,19.87
2018-12-16T19:33:02.903Z,21.80
2018-12-16T19:35:30.401Z,18.50
2018-12-16T19:37:57.937Z,20.90
2018-12-16T19:40:25.486Z,22.43
2018-12-16T19:42:52.999Z,22.83
2018-12-16T19:45:20.559Z,19.87
2018-12-16T19:47:49.662Z,20.40
2018-12-16T19:50:17.452Z,37.70
2018-12-16T19:52:44.997Z,26.90
2018-12-16T19:55:12.923Z,19.37
2018-12-16T19:57:40.424Z,19.97
2018-12-16T20:00:08.277Z,22.23
2018-12-16T20:02:35.787Z,18.80
2018-12-16T20:05:04.523Z,19.90
2018-12-16T20:07:32.642Z,19.80
2018-12-16T20:10:00.141Z,21.60
2018-12-16T20:12:27.665Z,20.30
2018-12-16T20:17:29.162Z,18.73
2018-12-16T20:19:56.667Z,18.90
2018-12-16T20:22:24.198Z,17.93
2018-12-16T20:24:51.730Z,19.07
2018-12-16T20:27:19.276Z,18.23
2018-12-16T20:29:46.776Z,18.97
2018-12-16T20:32:14.603Z,19.70
2018-12-16T20:34:42.119Z,19.60
2018-12-16T20:37:09.677Z,17.83
2018-12-16T20:39:37.181Z,19.87
2018-12-16T20:42:04.878Z,19.23
2018-12-16T20:44:32.385Z,18.70
2018-12-16T20:46:59.982Z,18.07
2018-12-16T20:49:27.482Z,16.67
2018-12-16T20:51:55.016Z,18.27
2018-12-16T20:54:22.584Z,19.53
2018-12-16T20:56:50.114Z,18.00
2018-12-16T20:59:17.622Z,18.03
2018-12-16T21:01:45.215Z,18.50
2018-12-16T21:04:12.721Z,17.30
2018-12-16T21:06:40.222Z,19.57
2018-12-16T21:09:07.780Z,19.00
2018-12-16T21:11:41.557Z,20.10
2018-12-16T21:14:14.975Z,18.27
2018-12-16T21:16:48.177Z,19.30
2018-12-16T21:19:15.774Z,17.63
2018-12-16T21:21:43.266Z,18.20
2018-12-16T21:24:10.865Z,18.67
2018-12-16T21:26:38.358Z,17.17
2018-12-16T21:29:05.876Z,19.70
2018-12-16T21:31:33.383Z,18.90
2018-12-16T21:34:00.918Z,18.43
2018-12-16T21:36:28.446Z,20.00
2018-12-16T21:38:55.985Z,21.10
2018-12-16T21:41:23.496Z,20.70
2018-12-16T21:43:51.030Z,20.90
2018-12-16T21:46:18.531Z,19.90
2018-12-16T21:48:46.083Z,17.30
2018-12-16T21:51:13.830Z,17.17
2018-12-16T21:53:41.353Z,15.57
2018-12-16T21:56:08.849Z,16.20
2018-12-16T21:58:36.378Z,16.17
2018-12-16T22:01:04.266Z,16.13
2018-12-16T22:03:31.797Z,18.20
2018-12-16T22:05:59.302Z,21.37
2018-12-16T22:08:26.831Z,17.33
2018-12-16T22:10:54.392Z,17.30
2018-12-16T22:13:21.942Z,17.83
2018-12-16T22:15:49.441Z,17.60
2018-12-16T22:18:16.955Z,19.23
2018-12-16T22:20:44.509Z,17.37
2018-12-16T22:23:12.009Z,17.50
2018-12-16T22:25:39.529Z,22.07
2018-12-16T22:28:07.024Z,21.57
2018-12-16T22:30:34.943Z,18.87
2018-12-16T22:33:02.446Z,17.20
2018-12-16T22:35:29.970Z,17.20
2018-12-16T22:37:57.476Z,18.87
2018-12-16T22:40:26.636Z,18.40
2018-12-16T22:42:54.401Z,22.03
2018-12-16T22:45:21.919Z,22.20
2018-12-16T22:47:49.477Z,19.30
2018-12-16T22:50:17.005Z,19.77
2018-12-16T22:52:44.507Z,20.50
2018-12-16T22:55:12.132Z,18.97
2018-12-16T22:57:39.665Z,19.20
2018-12-16T23:00:09.617Z,21.67
2018-12-16T23:02:37.120Z,23.10
2018-12-16T23:05:05.394Z,21.80
2018-12-16T23:07:32.893Z,21.03
2018-12-16T23:10:00.416Z,20.63
2018-12-16T23:12:29.894Z,23.13
2018-12-16T23:14:57.418Z,23.93
2018-12-16T23:17:24.961Z,22.13
2018-12-16T23:19:54.449Z,20.13
2018-12-16T23:22:22.044Z,21.53
2018-12-16T23:24:49.624Z,26.77
2018-12-16T23:27:17.141Z,25.63
2018-12-16T23:29:45.005Z,22.80
2018-12-16T23:32:12.682Z,22.63
2018-12-16T23:34:40.352Z,21.27
2018-12-16T23:37:07.872Z,21.27
2018-12-16T23:39:35.373Z,23.73
2018-12-16T23:42:02.904Z,21.90
2018-12-16T23:44:30.411Z,23.07
2018-12-16T23:46:57.937Z,22.47
2018-12-16T23:49:25.510Z,22.13
2018-12-16T23:51:53.324Z,24.53
2018-12-16T23:54:20.821Z,22.80
2018-12-16T23:56:48.348Z,23.47
2018-12-16T23:59:15.849Z,22.70
